Cathlamet, Washington
Current Conditions -  °F | °C
As of 11:55 AM on Saturday 25 Oct 2014 (Local Time) from KKLS Reporting Station
Overcast Overcast  
Wind Chill: 14°   Ceiling: 7000
Heat Index: 14°   Visibility: 10mi
Dew Point: 11°   Wind: 6mph
Humidity: 82%   Direction: 140°SE
Pressure: 29.4"   Gusts: NA
Location:  46.2°N, 123.38°W
Report Text: KKLS 251855Z AUTO 14005KT 10SM BKN070 OVC080 14/11 A2940 RMK AO1
Loading
Personal Weather Stations






























Interactive Weather Map
Tropical Storm Tracking
New forecast layout! Learn more

10-Day Weather Forecast

Advertisements
Track Severe Weather on mobile